Lowell, Michigan
Current Conditions -  °F | °C
As of 12:53 PM on Monday 24 Nov 2014 (Local Time) from KGRR Reporting Station
Light Rain Light Rain  
Wind Chill: 41°   Ceiling: 800
Heat Index: 49°   Visibility: 4mi
Dew Point: 48°   Wind: 26mph
Humidity: 97%   Direction: 230°SW
Pressure: 29.1"   Gusts: 32mph
Location:  42.93°N, 85.34°W
Report Text: KGRR 241753Z 23023G28KT 4SM -RA BR BKN008 OVC012 09/09 A2910 RMK AO2 PK WND 23028/1748 SLP856 P0010 60021 T00940089 10100 20094 53012
Loading
Personal Weather Stations






























Interactive Weather Map New forecast layout! Learn more

10-Day Weather Forecast

Advertisements
Track Severe Weather on mobile